sensor_id;sensor_type;location;lat;lon;timestamp;P1;durP1;ratioP1;P2;durP2;ratioP2
46713;SDS011;32445;51.376;10.874;2023-03-01T00:00:34;10.98;;;10.05;;
46713;SDS011;32445;51.376;10.874;2023-03-01T00:03:34;9.73;;;9.05;;
46713;SDS011;32445;51.376;10.874;2023-03-01T00:06:35;9.45;;;8.82;;
46713;SDS011;32445;51.376;10.874;2023-03-01T00:09:36;9.80;;;9.02;;
46713;SDS011;32445;51.376;10.874;2023-03-01T00:12:37;9.88;;;9.05;;
46713;SDS011;32445;51.376;10.874;2023-03-01T00:15:38;12.35;;;9.75;;
46713;SDS011;32445;51.376;10.874;2023-03-01T00:18:40;9.60;;;8.70;;
46713;SDS011;32445;51.376;10.874;2023-03-01T00:21:40;9.20;;;8.50;;
46713;SDS011;32445;51.376;10.874;2023-03-01T00:24:44;12.88;;;8.73;;
46713;SDS011;32445;51.376;10.874;2023-03-01T00:27:44;10.57;;;9.68;;
46713;SDS011;32445;51.376;10.874;2023-03-01T00:33:47;8.98;;;8.07;;
46713;SDS011;32445;51.376;10.874;2023-03-01T00:36:50;11.02;;;10.20;;
46713;SDS011;32445;51.376;10.874;2023-03-01T00:39:50;10.98;;;9.93;;
46713;SDS011;32445;51.376;10.874;2023-03-01T00:42:51;11.52;;;10.55;;
46713;SDS011;32445;51.376;10.874;2023-03-01T00:45:51;10.75;;;9.75;;
46713;SDS011;32445;51.376;10.874;2023-03-01T00:48:52;15.07;;;11.32;;
46713;SDS011;32445;51.376;10.874;2023-03-01T00:51:53;11.37;;;10.23;;
46713;SDS011;32445;51.376;10.874;2023-03-01T00:54:53;13.05;;;11.85;;
46713;SDS011;32445;51.376;10.874;2023-03-01T00:57:54;12.82;;;11.82;;
46713;SDS011;32445;51.376;10.874;2023-03-01T01:00:54;12.32;;;11.13;;
46713;SDS011;32445;51.376;10.874;2023-03-01T01:03:59;12.75;;;11.60;;
46713;SDS011;32445;51.376;10.874;2023-03-01T01:07:06;15.18;;;12.30;;
46713;SDS011;32445;51.376;10.874;2023-03-01T01:10:09;13.30;;;11.95;;
46713;SDS011;32445;51.376;10.874;2023-03-01T01:13:19;13.73;;;12.52;;
46713;SDS011;32445;51.376;10.874;2023-03-01T01:16:20;12.77;;;11.68;;
46713;SDS011;32445;51.376;10.874;2023-03-01T01:19:22;13.27;;;12.27;;
46713;SDS011;32445;51.376;10.874;2023-03-01T01:22:23;11.00;;;10.17;;
46713;SDS011;32445;51.376;10.874;2023-03-01T01:25:23;11.75;;;10.63;;
46713;SDS011;32445;51.376;10.874;2023-03-01T01:28:27;11.23;;;10.23;;
46713;SDS011;32445;51.376;10.874;2023-03-01T01:31:28;12.38;;;11.43;;
46713;SDS011;32445;51.376;10.874;2023-03-01T01:37:32;13.65;;;12.48;;
46713;SDS011;32445;51.376;10.874;2023-03-01T01:40:34;13.20;;;12.18;;
46713;SDS011;32445;51.376;10.874;2023-03-01T01:43:46;13.55;;;12.35;;
46713;SDS011;32445;51.376;10.874;2023-03-01T01:47:08;11.70;;;10.50;;
46713;SDS011;32445;51.376;10.874;2023-03-01T01:50:14;10.30;;;9.50;;
46713;SDS011;32445;51.376;10.874;2023-03-01T01:53:18;11.30;;;10.35;;
46713;SDS011;32445;51.376;10.874;2023-03-01T01:56:20;11.93;;;10.80;;
46713;SDS011;32445;51.376;10.874;2023-03-01T01:59:26;11.13;;;10.23;;
46713;SDS011;32445;51.376;10.874;2023-03-01T02:02:30;14.13;;;10.02;;
46713;SDS011;32445;51.376;10.874;2023-03-01T02:08:53;11.20;;;10.25;;
46713;SDS011;32445;51.376;10.874;2023-03-01T02:11:57;10.10;;;9.25;;
46713;SDS011;32445;51.376;10.874;2023-03-01T02:14:59;10.73;;;9.83;;
46713;SDS011;32445;51.376;10.874;2023-03-01T02:17:59;10.52;;;9.63;;
46713;SDS011;32445;51.376;10.874;2023-03-01T02:21:20;11.18;;;10.23;;
46713;SDS011;32445;51.376;10.874;2023-03-01T02:24:28;10.52;;;9.50;;
46713;SDS011;32445;51.376;10.874;2023-03-01T02:27:40;13.65;;;10.63;;
46713;SDS011;32445;51.376;10.874;2023-03-01T02:30:49;11.27;;;10.25;;
46713;SDS011;32445;51.376;10.874;2023-03-01T02:34:10;12.05;;;10.98;;
46713;SDS011;32445;51.376;10.874;2023-03-01T02:37:17;12.38;;;11.38;;
46713;SDS011;32445;51.376;10.874;2023-03-01T02:40:24;11.90;;;11.00;;
46713;SDS011;32445;51.376;10.874;2023-03-01T02:43:25;10.60;;;9.70;;
46713;SDS011;32445;51.376;10.874;2023-03-01T02:46:30;15.60;;;9.55;;
46713;SDS011;32445;51.376;10.874;2023-03-01T02:49:31;11.27;;;10.40;;
46713;SDS011;32445;51.376;10.874;2023-03-01T02:52:43;10.55;;;9.65;;
46713;SDS011;32445;51.376;10.874;2023-03-01T02:55:53;11.02;;;10.23;;
46713;SDS011;32445;51.376;10.874;2023-03-01T02:58:53;9.90;;;9.10;;
46713;SDS011;32445;51.376;10.874;2023-03-01T03:01:54;13.85;;;10.52;;
46713;SDS011;32445;51.376;10.874;2023-03-01T03:04:54;11.35;;;10.20;;
46713;SDS011;32445;51.376;10.874;2023-03-01T03:07:55;11.40;;;10.55;;
46713;SDS011;32445;51.376;10.874;2023-03-01T03:10:56;11.48;;;10.57;;
46713;SDS011;32445;51.376;10.874;2023-03-01T03:13:57;10.98;;;9.82;;
46713;SDS011;32445;51.376;10.874;2023-03-01T03:16:57;10.65;;;9.63;;
46713;SDS011;32445;51.376;10.874;2023-03-01T03:19:58;11.23;;;10.30;;
46713;SDS011;32445;51.376;10.874;2023-03-01T03:22:58;10.82;;;10.00;;
46713;SDS011;32445;51.376;10.874;2023-03-01T03:25:58;10.40;;;9.60;;
46713;SDS011;32445;51.376;10.874;2023-03-01T03:28:59;12.10;;;11.10;;
46713;SDS011;32445;51.376;10.874;2023-03-01T03:31:59;12.57;;;11.52;;
46713;SDS011;32445;51.376;10.874;2023-03-01T03:35:00;11.93;;;10.85;;
46713;SDS011;32445;51.376;10.874;2023-03-01T03:38:03;13.48;;;12.02;;
46713;SDS011;32445;51.376;10.874;2023-03-01T03:41:15;13.40;;;12.23;;
46713;SDS011;32445;51.376;10.874;2023-03-01T03:44:19;14.67;;;13.27;;
46713;SDS011;32445;51.376;10.874;2023-03-01T03:47:19;14.43;;;13.10;;
46713;SDS011;32445;51.376;10.874;2023-03-01T03:50:20;13.05;;;11.52;;
46713;SDS011;32445;51.376;10.874;2023-03-01T03:53:20;14.07;;;12.90;;
46713;SDS011;32445;51.376;10.874;2023-03-01T03:56:22;14.65;;;13.38;;
46713;SDS011;32445;51.376;10.874;2023-03-01T03:59:25;12.00;;;11.03;;
46713;SDS011;32445;51.376;10.874;2023-03-01T04:02:26;15.07;;;12.63;;
46713;SDS011;32445;51.376;10.874;2023-03-01T04:05:27;12.70;;;11.60;;
46713;SDS011;32445;51.376;10.874;2023-03-01T04:08:28;13.80;;;11.02;;
46713;SDS011;32445;51.376;10.874;2023-03-01T04:11:28;12.17;;;11.23;;
46713;SDS011;32445;51.376;10.874;2023-03-01T04:14:29;13.57;;;12.45;;
46713;SDS011;32445;51.376;10.874;2023-03-01T04:17:29;13.75;;;12.02;;
46713;SDS011;32445;51.376;10.874;2023-03-01T04:20:31;13.47;;;12.40;;
46713;SDS011;32445;51.376;10.874;2023-03-01T04:23:34;12.40;;;11.30;;
46713;SDS011;32445;51.376;10.874;2023-03-01T04:26:35;15.40;;;14.00;;
46713;SDS011;32445;51.376;10.874;2023-03-01T04:29:35;14.53;;;12.50;;
46713;SDS011;32445;51.376;10.874;2023-03-01T04:32:35;13.50;;;12.23;;
46713;SDS011;32445;51.376;10.874;2023-03-01T04:35:36;13.77;;;11.67;;
46713;SDS011;32445;51.376;10.874;2023-03-01T04:38:37;13.23;;;11.63;;
46713;SDS011;32445;51.376;10.874;2023-03-01T04:41:39;12.80;;;11.45;;
46713;SDS011;32445;51.376;10.874;2023-03-01T04:44:40;11.88;;;10.98;;
46713;SDS011;32445;51.376;10.874;2023-03-01T04:47:41;12.07;;;11.07;;
46713;SDS011;32445;51.376;10.874;2023-03-01T04:50:44;11.45;;;10.35;;
46713;SDS011;32445;51.376;10.874;2023-03-01T04:53:44;12.87;;;11.77;;
46713;SDS011;32445;51.376;10.874;2023-03-01T04:56:44;11.80;;;10.83;;
46713;SDS011;32445;51.376;10.874;2023-03-01T04:59:45;11.63;;;10.63;;
46713;SDS011;32445;51.376;10.874;2023-03-01T05:02:50;11.07;;;10.17;;
46713;SDS011;32445;51.376;10.874;2023-03-01T05:05:58;12.73;;;11.57;;
46713;SDS011;32445;51.376;10.874;2023-03-01T05:08:59;11.53;;;10.63;;
46713;SDS011;32445;51.376;10.874;2023-03-01T05:12:00;12.43;;;11.33;;
46713;SDS011;32445;51.376;10.874;2023-03-01T05:15:00;11.60;;;10.70;;
46713;SDS011;32445;51.376;10.874;2023-03-01T05:18:00;13.43;;;10.73;;
46713;SDS011;32445;51.376;10.874;2023-03-01T05:21:02;11.07;;;10.17;;
46713;SDS011;32445;51.376;10.874;2023-03-01T05:24:04;12.10;;;11.00;;
46713;SDS011;32445;51.376;10.874;2023-03-01T05:27:04;12.10;;;11.17;;
46713;SDS011;32445;51.376;10.874;2023-03-01T05:30:06;11.77;;;10.83;;
46713;SDS011;32445;51.376;10.874;2023-03-01T05:33:13;12.70;;;11.60;;
46713;SDS011;32445;51.376;10.874;2023-03-01T05:36:13;14.77;;;13.07;;
46713;SDS011;32445;51.376;10.874;2023-03-01T05:39:14;12.23;;;11.23;;
46713;SDS011;32445;51.376;10.874;2023-03-01T05:42:14;13.20;;;12.20;;
46713;SDS011;32445;51.376;10.874;2023-03-01T05:45:15;14.77;;;12.67;;
46713;SDS011;32445;51.376;10.874;2023-03-01T05:48:17;15.07;;;13.57;;
46713;SDS011;32445;51.376;10.874;2023-03-01T05:51:19;16.57;;;14.20;;
46713;SDS011;32445;51.376;10.874;2023-03-01T05:54:20;15.70;;;14.07;;
46713;SDS011;32445;51.376;10.874;2023-03-01T05:57:21;16.92;;;15.23;;
46713;SDS011;32445;51.376;10.874;2023-03-01T06:00:21;18.43;;;16.57;;
46713;SDS011;32445;51.376;10.874;2023-03-01T06:03:22;22.47;;;16.03;;
46713;SDS011;32445;51.376;10.874;2023-03-01T06:06:23;18.27;;;16.57;;
46713;SDS011;32445;51.376;10.874;2023-03-01T06:09:24;18.17;;;16.10;;
46713;SDS011;32445;51.376;10.874;2023-03-01T06:12:25;17.42;;;15.75;;
46713;SDS011;32445;51.376;10.874;2023-03-01T06:15:26;18.50;;;15.43;;
46713;SDS011;32445;51.376;10.874;2023-03-01T06:18:26;16.35;;;14.63;;
46713;SDS011;32445;51.376;10.874;2023-03-01T06:21:27;15.43;;;13.87;;
46713;SDS011;32445;51.376;10.874;2023-03-01T06:24:27;16.50;;;14.40;;
46713;SDS011;32445;51.376;10.874;2023-03-01T06:27:28;16.87;;;13.47;;
46713;SDS011;32445;51.376;10.874;2023-03-01T06:30:29;17.00;;;15.30;;
46713;SDS011;32445;51.376;10.874;2023-03-01T06:33:29;14.93;;;13.53;;
46713;SDS011;32445;51.376;10.874;2023-03-01T06:36:30;15.32;;;13.95;;
46713;SDS011;32445;51.376;10.874;2023-03-01T06:39:30;16.67;;;14.77;;
46713;SDS011;32445;51.376;10.874;2023-03-01T06:42:31;15.20;;;13.70;;
46713;SDS011;32445;51.376;10.874;2023-03-01T06:45:32;15.43;;;13.80;;
46713;SDS011;32445;51.376;10.874;2023-03-01T06:48:32;20.20;;;16.43;;
46713;SDS011;32445;51.376;10.874;2023-03-01T06:51:33;55.10;;;32.92;;
46713;SDS011;32445;51.376;10.874;2023-03-01T06:54:34;48.23;;;30.57;;
46713;SDS011;32445;51.376;10.874;2023-03-01T06:57:34;31.47;;;22.00;;
46713;SDS011;32445;51.376;10.874;2023-03-01T07:00:34;29.00;;;20.47;;
46713;SDS011;32445;51.376;10.874;2023-03-01T07:03:35;21.67;;;18.70;;
46713;SDS011;32445;51.376;10.874;2023-03-01T07:06:35;30.40;;;21.17;;
46713;SDS011;32445;51.376;10.874;2023-03-01T07:09:35;26.70;;;20.30;;
46713;SDS011;32445;51.376;10.874;2023-03-01T07:12:36;28.10;;;19.47;;
46713;SDS011;32445;51.376;10.874;2023-03-01T07:15:36;20.37;;;18.03;;
46713;SDS011;32445;51.376;10.874;2023-03-01T07:18:37;20.20;;;18.10;;
46713;SDS011;32445;51.376;10.874;2023-03-01T07:21:37;20.63;;;17.07;;
46713;SDS011;32445;51.376;10.874;2023-03-01T07:24:38;17.87;;;14.80;;
46713;SDS011;32445;51.376;10.874;2023-03-01T07:27:38;26.80;;;18.30;;
46713;SDS011;32445;51.376;10.874;2023-03-01T07:30:39;18.27;;;16.47;;
46713;SDS011;32445;51.376;10.874;2023-03-01T07:33:40;18.03;;;15.10;;
46713;SDS011;32445;51.376;10.874;2023-03-01T07:36:40;22.23;;;17.13;;
46713;SDS011;32445;51.376;10.874;2023-03-01T07:39:43;21.63;;;18.17;;
46713;SDS011;32445;51.376;10.874;2023-03-01T07:42:43;21.83;;;17.67;;
46713;SDS011;32445;51.376;10.874;2023-03-01T07:45:43;24.15;;;18.50;;
46713;SDS011;32445;51.376;10.874;2023-03-01T07:48:44;28.20;;;18.73;;
46713;SDS011;32445;51.376;10.874;2023-03-01T07:51:44;22.63;;;19.20;;
46713;SDS011;32445;51.376;10.874;2023-03-01T07:54:44;32.72;;;19.45;;
46713;SDS011;32445;51.376;10.874;2023-03-01T07:57:45;25.92;;;19.27;;
46713;SDS011;32445;51.376;10.874;2023-03-01T08:00:45;33.20;;;18.00;;
46713;SDS011;32445;51.376;10.874;2023-03-01T08:03:46;27.35;;;17.25;;
46713;SDS011;32445;51.376;10.874;2023-03-01T08:06:46;24.47;;;16.73;;
46713;SDS011;32445;51.376;10.874;2023-03-01T08:09:47;29.40;;;18.17;;
46713;SDS011;32445;51.376;10.874;2023-03-01T08:12:47;24.90;;;15.87;;
46713;SDS011;32445;51.376;10.874;2023-03-01T08:15:48;27.60;;;20.52;;
46713;SDS011;32445;51.376;10.874;2023-03-01T08:18:54;27.23;;;18.87;;
46713;SDS011;32445;51.376;10.874;2023-03-01T08:21:56;31.25;;;19.75;;
46713;SDS011;32445;51.376;10.874;2023-03-01T08:24:58;30.35;;;18.75;;
46713;SDS011;32445;51.376;10.874;2023-03-01T08:27:58;25.50;;;18.87;;
46713;SDS011;32445;51.376;10.874;2023-03-01T08:30:59;22.17;;;18.80;;
46713;SDS011;32445;51.376;10.874;2023-03-01T08:34:00;30.63;;;20.23;;
46713;SDS011;32445;51.376;10.874;2023-03-01T08:37:01;28.77;;;20.38;;
46713;SDS011;32445;51.376;10.874;2023-03-01T08:40:02;36.05;;;19.60;;
46713;SDS011;32445;51.376;10.874;2023-03-01T08:43:07;20.63;;;18.52;;
46713;SDS011;32445;51.376;10.874;2023-03-01T08:46:08;21.58;;;17.77;;
46713;SDS011;32445;51.376;10.874;2023-03-01T08:49:10;21.70;;;17.88;;
46713;SDS011;32445;51.376;10.874;2023-03-01T08:52:13;21.95;;;15.82;;
46713;SDS011;32445;51.376;10.874;2023-03-01T08:55:13;15.70;;;13.43;;
46713;SDS011;32445;51.376;10.874;2023-03-01T08:58:16;15.25;;;13.80;;
46713;SDS011;32445;51.376;10.874;2023-03-01T09:01:17;23.77;;;15.95;;
46713;SDS011;32445;51.376;10.874;2023-03-01T09:07:19;19.13;;;15.02;;
46713;SDS011;32445;51.376;10.874;2023-03-01T09:10:28;17.05;;;15.15;;
46713;SDS011;32445;51.376;10.874;2023-03-01T09:13:28;37.78;;;17.45;;
46713;SDS011;32445;51.376;10.874;2023-03-01T09:19:35;16.10;;;14.52;;
46713;SDS011;32445;51.376;10.874;2023-03-01T09:22:36;18.38;;;15.20;;
46713;SDS011;32445;51.376;10.874;2023-03-01T09:25:36;17.02;;;15.32;;
46713;SDS011;32445;51.376;10.874;2023-03-01T09:28:36;17.75;;;15.45;;
46713;SDS011;32445;51.376;10.874;2023-03-01T09:31:37;14.15;;;12.55;;
46713;SDS011;32445;51.376;10.874;2023-03-01T09:34:38;17.38;;;14.82;;
46713;SDS011;32445;51.376;10.874;2023-03-01T09:37:58;15.52;;;13.75;;
46713;SDS011;32445;51.376;10.874;2023-03-01T09:40:59;16.52;;;14.77;;
46713;SDS011;32445;51.376;10.874;2023-03-01T09:47:31;21.88;;;14.85;;
46713;SDS011;32445;51.376;10.874;2023-03-01T09:50:35;15.05;;;13.43;;
46713;SDS011;32445;51.376;10.874;2023-03-01T09:53:40;17.25;;;11.95;;
46713;SDS011;32445;51.376;10.874;2023-03-01T09:56:53;16.90;;;12.40;;
46713;SDS011;32445;51.376;10.874;2023-03-01T10:06:23;13.38;;;12.07;;
46713;SDS011;32445;51.376;10.874;2023-03-01T10:09:23;14.15;;;12.38;;
46713;SDS011;32445;51.376;10.874;2023-03-01T10:12:27;14.38;;;12.85;;
46713;SDS011;32445;51.376;10.874;2023-03-01T10:15:35;13.23;;;11.93;;
46713;SDS011;32445;51.376;10.874;2023-03-01T10:18:42;13.32;;;11.93;;
46713;SDS011;32445;51.376;10.874;2023-03-01T10:21:46;13.40;;;12.00;;
46713;SDS011;32445;51.376;10.874;2023-03-01T10:24:48;16.50;;;12.50;;
46713;SDS011;32445;51.376;10.874;2023-03-01T10:27:52;15.95;;;12.95;;
46713;SDS011;32445;51.376;10.874;2023-03-01T10:30:54;14.50;;;13.00;;
46713;SDS011;32445;51.376;10.874;2023-03-01T10:33:55;14.30;;;12.65;;
46713;SDS011;32445;51.376;10.874;2023-03-01T10:40:05;13.80;;;11.80;;
46713;SDS011;32445;51.376;10.874;2023-03-01T10:43:10;14.57;;;11.60;;
46713;SDS011;32445;51.376;10.874;2023-03-01T10:46:22;12.63;;;11.32;;
46713;SDS011;32445;51.376;10.874;2023-03-01T10:49:23;12.90;;;11.60;;
46713;SDS011;32445;51.376;10.874;2023-03-01T10:52:27;12.70;;;11.27;;
46713;SDS011;32445;51.376;10.874;2023-03-01T10:58:40;15.87;;;12.43;;
46713;SDS011;32445;51.376;10.874;2023-03-01T11:11:36;12.07;;;11.07;;
46713;SDS011;32445;51.376;10.874;2023-03-01T11:14:37;15.73;;;12.52;;
46713;SDS011;32445;51.376;10.874;2023-03-01T11:17:45;12.18;;;11.07;;
46713;SDS011;32445;51.376;10.874;2023-03-01T11:20:45;12.07;;;10.85;;
46713;SDS011;32445;51.376;10.874;2023-03-01T11:23:46;13.70;;;9.52;;
46713;SDS011;32445;51.376;10.874;2023-03-01T11:26:50;10.23;;;9.20;;
46713;SDS011;32445;51.376;10.874;2023-03-01T11:29:57;9.38;;;8.40;;
46713;SDS011;32445;51.376;10.874;2023-03-01T11:36:56;9.60;;;8.77;;
46713;SDS011;32445;51.376;10.874;2023-03-01T11:56:31;7.35;;;6.43;;
46713;SDS011;32445;51.376;10.874;2023-03-01T11:59:44;9.52;;;7.10;;
46713;SDS011;32445;51.376;10.874;2023-03-01T12:06:29;7.03;;;6.43;;
46713;SDS011;32445;51.376;10.874;2023-03-01T12:09:36;7.15;;;6.45;;
46713;SDS011;32445;51.376;10.874;2023-03-01T12:16:03;6.25;;;5.65;;
46713;SDS011;32445;51.376;10.874;2023-03-01T12:29:23;6.57;;;6.03;;
46713;SDS011;32445;51.376;10.874;2023-03-01T12:32:43;10.25;;;5.80;;
46713;SDS011;32445;51.376;10.874;2023-03-01T12:36:50;6.70;;;6.10;;
46713;SDS011;32445;51.376;10.874;2023-03-01T12:39:30;6.07;;;5.45;;
46713;SDS011;32445;51.376;10.874;2023-03-01T12:50:01;7.13;;;6.53;;
46713;SDS011;32445;51.376;10.874;2023-03-01T12:53:17;7.00;;;6.35;;
46713;SDS011;32445;51.376;10.874;2023-03-01T12:56:27;6.63;;;5.90;;
46713;SDS011;32445;51.376;10.874;2023-03-01T12:59:39;7.55;;;6.68;;
46713;SDS011;32445;51.376;10.874;2023-03-01T13:03:10;7.72;;;6.93;;
46713;SDS011;32445;51.376;10.874;2023-03-01T13:09:41;7.53;;;5.95;;
46713;SDS011;32445;51.376;10.874;2023-03-01T13:15:57;8.20;;;6.30;;
46713;SDS011;32445;51.376;10.874;2023-03-01T13:19:30;5.55;;;5.05;;
46713;SDS011;32445;51.376;10.874;2023-03-01T13:25:33;7.85;;;4.82;;
46713;SDS011;32445;51.376;10.874;2023-03-01T13:34:41;6.68;;;6.10;;
46713;SDS011;32445;51.376;10.874;2023-03-01T13:37:43;5.20;;;4.72;;
46713;SDS011;32445;51.376;10.874;2023-03-01T13:43:51;6.45;;;5.10;;
46713;SDS011;32445;51.376;10.874;2023-03-01T13:46:52;6.55;;;5.30;;
46713;SDS011;32445;51.376;10.874;2023-03-01T13:53:02;4.80;;;4.30;;
46713;SDS011;32445;51.376;10.874;2023-03-01T13:56:12;5.78;;;5.28;;
46713;SDS011;32445;51.376;10.874;2023-03-01T13:59:17;6.70;;;4.78;;
46713;SDS011;32445;51.376;10.874;2023-03-01T14:02:19;4.85;;;4.45;;
46713;SDS011;32445;51.376;10.874;2023-03-01T14:05:20;5.38;;;4.93;;
46713;SDS011;32445;51.376;10.874;2023-03-01T14:08:22;4.45;;;4.07;;
46713;SDS011;32445;51.376;10.874;2023-03-01T14:11:33;6.32;;;4.63;;
46713;SDS011;32445;51.376;10.874;2023-03-01T14:15:34;4.40;;;4.10;;
46713;SDS011;32445;51.376;10.874;2023-03-01T14:19:05;6.10;;;5.50;;
46713;SDS011;32445;51.376;10.874;2023-03-01T14:22:21;5.93;;;4.60;;
46713;SDS011;32445;51.376;10.874;2023-03-01T14:25:32;5.53;;;5.03;;
46713;SDS011;32445;51.376;10.874;2023-03-01T14:28:35;5.40;;;4.82;;
46713;SDS011;32445;51.376;10.874;2023-03-01T14:31:38;5.40;;;4.90;;
46713;SDS011;32445;51.376;10.874;2023-03-01T14:34:58;5.43;;;4.93;;
46713;SDS011;32445;51.376;10.874;2023-03-01T14:37:59;5.32;;;4.82;;
46713;SDS011;32445;51.376;10.874;2023-03-01T14:41:18;7.30;;;5.13;;
46713;SDS011;32445;51.376;10.874;2023-03-01T14:44:24;6.70;;;5.07;;
46713;SDS011;32445;51.376;10.874;2023-03-01T14:47:26;6.13;;;5.35;;
46713;SDS011;32445;51.376;10.874;2023-03-01T14:50:30;6.57;;;5.32;;
46713;SDS011;32445;51.376;10.874;2023-03-01T14:53:32;5.15;;;4.25;;
46713;SDS011;32445;51.376;10.874;2023-03-01T14:56:42;4.93;;;4.43;;
46713;SDS011;32445;51.376;10.874;2023-03-01T14:59:45;6.15;;;4.68;;
46713;SDS011;32445;51.376;10.874;2023-03-01T15:02:48;8.95;;;5.13;;
46713;SDS011;32445;51.376;10.874;2023-03-01T15:05:49;5.15;;;4.68;;
46713;SDS011;32445;51.376;10.874;2023-03-01T15:08:51;6.17;;;4.43;;
46713;SDS011;32445;51.376;10.874;2023-03-01T15:11:54;4.93;;;4.22;;
46713;SDS011;32445;51.376;10.874;2023-03-01T15:14:55;4.67;;;4.27;;
46713;SDS011;32445;51.376;10.874;2023-03-01T15:17:57;5.30;;;4.05;;
46713;SDS011;32445;51.376;10.874;2023-03-01T15:21:36;3.78;;;3.42;;
46713;SDS011;32445;51.376;10.874;2023-03-01T15:24:32;4.43;;;3.45;;
46713;SDS011;32445;51.376;10.874;2023-03-01T15:30:34;4.25;;;3.80;;
46713;SDS011;32445;51.376;10.874;2023-03-01T15:33:37;6.05;;;3.33;;
46713;SDS011;32445;51.376;10.874;2023-03-01T15:36:40;3.63;;;3.33;;
46713;SDS011;32445;51.376;10.874;2023-03-01T15:39:52;4.55;;;3.55;;
46713;SDS011;32445;51.376;10.874;2023-03-01T15:42:54;4.28;;;3.47;;
46713;SDS011;32445;51.376;10.874;2023-03-01T15:45:56;4.00;;;3.58;;
46713;SDS011;32445;51.376;10.874;2023-03-01T15:48:59;3.90;;;3.47;;
46713;SDS011;32445;51.376;10.874;2023-03-01T15:52:02;4.97;;;4.47;;
46713;SDS011;32445;51.376;10.874;2023-03-01T15:55:04;3.70;;;3.40;;
46713;SDS011;32445;51.376;10.874;2023-03-01T15:58:12;3.78;;;3.35;;
46713;SDS011;32445;51.376;10.874;2023-03-01T16:01:15;4.18;;;3.78;;
46713;SDS011;32445;51.376;10.874;2023-03-01T16:04:17;4.90;;;4.18;;
46713;SDS011;32445;51.376;10.874;2023-03-01T16:07:22;6.47;;;4.63;;
46713;SDS011;32445;51.376;10.874;2023-03-01T16:10:23;5.20;;;4.70;;
46713;SDS011;32445;51.376;10.874;2023-03-01T16:13:24;5.23;;;4.77;;
46713;SDS011;32445;51.376;10.874;2023-03-01T16:16:25;6.20;;;5.43;;
46713;SDS011;32445;51.376;10.874;2023-03-01T16:19:25;5.20;;;4.80;;
46713;SDS011;32445;51.376;10.874;2023-03-01T16:22:25;4.63;;;4.13;;
46713;SDS011;32445;51.376;10.874;2023-03-01T16:25:27;7.20;;;4.43;;
46713;SDS011;32445;51.376;10.874;2023-03-01T16:28:27;6.07;;;5.35;;
46713;SDS011;32445;51.376;10.874;2023-03-01T16:31:27;4.67;;;4.27;;
46713;SDS011;32445;51.376;10.874;2023-03-01T16:34:28;5.07;;;4.60;;
46713;SDS011;32445;51.376;10.874;2023-03-01T16:37:30;5.73;;;4.47;;
46713;SDS011;32445;51.376;10.874;2023-03-01T16:40:32;4.60;;;4.18;;
46713;SDS011;32445;51.376;10.874;2023-03-01T16:43:32;5.72;;;5.15;;
46713;SDS011;32445;51.376;10.874;2023-03-01T16:46:33;4.93;;;4.53;;
46713;SDS011;32445;51.376;10.874;2023-03-01T16:49:33;4.88;;;4.35;;
46713;SDS011;32445;51.376;10.874;2023-03-01T16:52:33;5.97;;;4.82;;
46713;SDS011;32445;51.376;10.874;2023-03-01T16:55:34;6.43;;;5.10;;
46713;SDS011;32445;51.376;10.874;2023-03-01T16:58:34;5.35;;;4.95;;
46713;SDS011;32445;51.376;10.874;2023-03-01T17:01:35;7.00;;;4.90;;
46713;SDS011;32445;51.376;10.874;2023-03-01T17:04:40;5.30;;;4.57;;
46713;SDS011;32445;51.376;10.874;2023-03-01T17:07:41;5.50;;;4.95;;
46713;SDS011;32445;51.376;10.874;2023-03-01T17:10:42;5.03;;;4.53;;
46713;SDS011;32445;51.376;10.874;2023-03-01T17:13:43;6.18;;;4.78;;
46713;SDS011;32445;51.376;10.874;2023-03-01T17:16:43;5.75;;;5.25;;
46713;SDS011;32445;51.376;10.874;2023-03-01T17:19:44;4.37;;;4.03;;
46713;SDS011;32445;51.376;10.874;2023-03-01T17:22:45;5.03;;;4.63;;
46713;SDS011;32445;51.376;10.874;2023-03-01T17:25:45;6.25;;;5.10;;
46713;SDS011;32445;51.376;10.874;2023-03-01T17:28:46;4.87;;;4.43;;
46713;SDS011;32445;51.376;10.874;2023-03-01T17:31:51;5.80;;;5.32;;
46713;SDS011;32445;51.376;10.874;2023-03-01T17:34:53;5.88;;;4.95;;
46713;SDS011;32445;51.376;10.874;2023-03-01T17:37:54;5.20;;;4.70;;
46713;SDS011;32445;51.376;10.874;2023-03-01T17:40:54;4.90;;;4.20;;
46713;SDS011;32445;51.376;10.874;2023-03-01T17:43:57;5.45;;;4.95;;
46713;SDS011;32445;51.376;10.874;2023-03-01T17:46:58;5.15;;;4.75;;
46713;SDS011;32445;51.376;10.874;2023-03-01T17:49:58;5.20;;;4.72;;
46713;SDS011;32445;51.376;10.874;2023-03-01T17:52:59;4.88;;;4.47;;
46713;SDS011;32445;51.376;10.874;2023-03-01T17:56:00;5.10;;;4.60;;
46713;SDS011;32445;51.376;10.874;2023-03-01T17:59:03;6.20;;;5.00;;
46713;SDS011;32445;51.376;10.874;2023-03-01T18:02:04;4.57;;;4.28;;
46713;SDS011;32445;51.376;10.874;2023-03-01T18:05:04;6.45;;;5.85;;
46713;SDS011;32445;51.376;10.874;2023-03-01T18:08:05;5.63;;;5.15;;
46713;SDS011;32445;51.376;10.874;2023-03-01T18:11:05;5.63;;;5.07;;
46713;SDS011;32445;51.376;10.874;2023-03-01T18:14:07;5.15;;;4.75;;
46713;SDS011;32445;51.376;10.874;2023-03-01T18:17:08;5.53;;;5.03;;
46713;SDS011;32445;51.376;10.874;2023-03-01T18:20:10;5.47;;;4.97;;
46713;SDS011;32445;51.376;10.874;2023-03-01T18:23:12;6.80;;;6.10;;
46713;SDS011;32445;51.376;10.874;2023-03-01T18:26:12;5.53;;;5.07;;
46713;SDS011;32445;51.376;10.874;2023-03-01T18:29:16;7.30;;;6.68;;
46713;SDS011;32445;51.376;10.874;2023-03-01T18:32:16;5.57;;;5.18;;
46713;SDS011;32445;51.376;10.874;2023-03-01T18:35:17;6.55;;;5.95;;
46713;SDS011;32445;51.376;10.874;2023-03-01T18:38:17;5.30;;;4.88;;
46713;SDS011;32445;51.376;10.874;2023-03-01T18:41:17;5.95;;;5.45;;
46713;SDS011;32445;51.376;10.874;2023-03-01T18:44:18;5.55;;;5.15;;
46713;SDS011;32445;51.376;10.874;2023-03-01T18:47:19;7.43;;;6.68;;
46713;SDS011;32445;51.376;10.874;2023-03-01T18:50:19;7.50;;;6.90;;
46713;SDS011;32445;51.376;10.874;2023-03-01T18:53:19;7.57;;;6.85;;
46713;SDS011;32445;51.376;10.874;2023-03-01T18:56:20;7.63;;;7.03;;
46713;SDS011;32445;51.376;10.874;2023-03-01T18:59:20;8.23;;;5.25;;
46713;SDS011;32445;51.376;10.874;2023-03-01T19:02:20;9.77;;;8.85;;
46713;SDS011;32445;51.376;10.874;2023-03-01T19:05:21;9.32;;;8.52;;
46713;SDS011;32445;51.376;10.874;2023-03-01T19:08:22;10.97;;;9.87;;
46713;SDS011;32445;51.376;10.874;2023-03-01T19:11:22;10.75;;;9.75;;
46713;SDS011;32445;51.376;10.874;2023-03-01T19:14:26;10.25;;;9.30;;
46713;SDS011;32445;51.376;10.874;2023-03-01T19:17:26;11.75;;;10.75;;
46713;SDS011;32445;51.376;10.874;2023-03-01T19:20:30;11.27;;;10.38;;
46713;SDS011;32445;51.376;10.874;2023-03-01T19:23:30;9.98;;;9.07;;
46713;SDS011;32445;51.376;10.874;2023-03-01T19:26:33;9.57;;;8.70;;
46713;SDS011;32445;51.376;10.874;2023-03-01T19:29:34;9.10;;;8.30;;
46713;SDS011;32445;51.376;10.874;2023-03-01T19:32:34;11.15;;;10.13;;
46713;SDS011;32445;51.376;10.874;2023-03-01T19:35:35;11.98;;;10.88;;
46713;SDS011;32445;51.376;10.874;2023-03-01T19:38:36;11.30;;;10.30;;